createdAt,value
2023-02-13T00:03:35.170Z,7.90
2023-02-13T00:08:00.741Z,7.90
2023-02-13T00:12:24.573Z,7.80
2023-02-13T00:16:48.401Z,7.80
2023-02-13T00:21:13.676Z,7.80
2023-02-13T00:25:40.226Z,7.80
2023-02-13T00:30:04.866Z,7.80
2023-02-13T00:34:29.115Z,7.80
2023-02-13T00:38:54.833Z,7.70
2023-02-13T00:43:20.453Z,7.70
2023-02-13T00:47:45.143Z,7.70
2023-02-13T00:52:09.469Z,7.70
2023-02-13T00:56:33.572Z,7.60
2023-02-13T01:00:59.276Z,7.60
2023-02-13T01:05:23.580Z,7.50
2023-02-13T01:09:47.966Z,7.50
2023-02-13T01:14:12.198Z,7.50
2023-02-13T01:18:38.477Z,7.50
2023-02-13T01:23:02.531Z,7.40
2023-02-13T01:27:26.610Z,7.40
2023-02-13T01:31:50.790Z,7.40
2023-02-13T01:36:16.254Z,7.40
2023-02-13T01:40:48.659Z,7.40
2023-02-13T01:45:25.030Z,7.40
2023-02-13T01:49:49.911Z,7.40
2023-02-13T01:54:18.729Z,7.40
2023-02-13T01:58:47.503Z,7.40
2023-02-13T02:03:15.118Z,7.40
2023-02-13T02:07:41.878Z,7.40
2023-02-13T02:12:11.602Z,7.40
2023-02-13T02:16:36.482Z,7.40
2023-02-13T02:21:29.374Z,7.40
2023-02-13T02:26:28.206Z,7.40
2023-02-13T02:31:24.012Z,7.40
2023-02-13T02:36:00.226Z,7.40
2023-02-13T02:40:32.633Z,7.40
2023-02-13T02:45:06.538Z,7.30
2023-02-13T02:49:50.836Z,7.30
2023-02-13T02:54:41.097Z,7.30
2023-02-13T02:59:25.748Z,7.30
2023-02-13T03:04:16.884Z,7.20
2023-02-13T03:09:00.385Z,7.30
2023-02-13T03:13:42.201Z,7.20
2023-02-13T03:18:23.422Z,7.20
2023-02-13T03:22:58.972Z,7.20
2023-02-13T03:27:48.318Z,7.20
2023-02-13T03:32:22.337Z,7.20
2023-02-13T03:37:08.197Z,7.10
2023-02-13T03:41:37.455Z,7.10
2023-02-13T03:46:03.546Z,7.10
2023-02-13T03:50:29.938Z,7.10
2023-02-13T03:55:15.136Z,7.10
2023-02-13T03:59:39.321Z,7.10
2023-02-13T04:04:10.436Z,7.10
2023-02-13T04:08:35.849Z,7.10
2023-02-13T04:13:06.426Z,7.10
2023-02-13T04:17:32.472Z,7.00
2023-02-13T04:21:59.698Z,7.00
2023-02-13T04:26:25.496Z,7.00
2023-02-13T04:30:50.120Z,7.00
2023-02-13T04:35:14.765Z,7.00
2023-02-13T04:39:38.636Z,7.00
2023-02-13T04:44:03.832Z,7.00
2023-02-13T04:48:27.660Z,7.00
2023-02-13T04:52:54.890Z,7.00
2023-02-13T04:57:18.699Z,7.00
2023-02-13T05:01:44.073Z,7.00
2023-02-13T05:06:08.261Z,6.90
2023-02-13T05:10:32.048Z,6.90
2023-02-13T05:14:55.855Z,6.90
2023-02-13T05:19:21.017Z,6.90
2023-02-13T05:23:44.837Z,6.80
2023-02-13T05:28:29.455Z,6.70
2023-02-13T05:32:54.992Z,6.80
2023-02-13T05:37:20.234Z,6.70
2023-02-13T05:41:47.741Z,6.70
2023-02-13T05:46:12.039Z,6.70
2023-02-13T05:50:35.927Z,6.70
2023-02-13T05:55:01.277Z,6.70
2023-02-13T05:59:25.224Z,6.70
2023-02-13T06:03:49.198Z,6.70
2023-02-13T06:08:13.045Z,6.70
2023-02-13T06:12:38.840Z,6.70
2023-02-13T06:17:02.629Z,6.70
2023-02-13T06:21:37.928Z,6.70
2023-02-13T06:26:04.442Z,6.70
2023-02-13T06:30:29.909Z,6.70
2023-02-13T06:34:53.732Z,6.70
2023-02-13T06:39:17.587Z,6.70
2023-02-13T06:43:41.636Z,6.70
2023-02-13T06:48:07.138Z,6.80
2023-02-13T06:52:31.460Z,6.80
2023-02-13T06:56:55.563Z,6.80
2023-02-13T07:01:19.862Z,6.80
2023-02-13T07:05:46.216Z,6.80
2023-02-13T07:10:12.220Z,6.90
2023-02-13T07:14:36.217Z,6.90
2023-02-13T07:19:00.204Z,6.90
2023-02-13T07:23:25.404Z,7.00
2023-02-13T07:27:49.154Z,7.10
2023-02-13T07:32:13.293Z,7.10
2023-02-13T07:36:37.167Z,7.10
2023-02-13T07:41:03.504Z,7.20
2023-02-13T07:45:27.403Z,7.20
2023-02-13T07:49:51.320Z,7.20
2023-02-13T07:54:15.403Z,7.30
2023-02-13T07:58:41.269Z,7.40
2023-02-13T08:03:05.463Z,7.40
2023-02-13T08:07:29.307Z,7.60
2023-02-13T08:11:54.706Z,7.60
2023-02-13T08:16:20.185Z,7.70
2023-02-13T08:20:44.292Z,7.70
2023-02-13T08:25:09.865Z,7.70
2023-02-13T08:29:34.647Z,7.70
2023-02-13T08:34:00.353Z,7.70
2023-02-13T08:38:19.777Z,7.70
2023-02-13T08:42:43.851Z,7.70
2023-02-13T08:47:07.844Z,7.70
2023-02-13T08:51:33.132Z,7.80
2023-02-13T08:55:58.964Z,7.80
2023-02-13T09:00:23.727Z,7.80
2023-02-13T09:04:47.576Z,7.90
2023-02-13T09:09:13.303Z,7.90
2023-02-13T09:13:40.235Z,7.80
2023-02-13T09:18:04.164Z,7.80
2023-02-13T09:22:28.228Z,7.80
2023-02-13T09:26:53.667Z,7.80
2023-02-13T09:31:19.564Z,7.80
2023-02-13T09:35:44.929Z,7.80
2023-02-13T09:40:19.319Z,7.90
2023-02-13T09:44:46.286Z,8.00
2023-02-13T09:49:14.336Z,8.00
2023-02-13T09:53:38.604Z,8.00
2023-02-13T09:58:09.814Z,7.90
2023-02-13T10:03:14.639Z,7.90
2023-02-13T10:07:45.078Z,8.00
2023-02-13T10:12:31.713Z,8.20
2023-02-13T10:17:00.245Z,8.30
2023-02-13T10:21:31.768Z,8.40
2023-02-13T10:26:00.213Z,8.50
2023-02-13T10:30:30.293Z,8.50
2023-02-13T10:34:56.326Z,8.50
2023-02-13T10:39:26.674Z,8.50
2023-02-13T10:44:06.981Z,8.40
2023-02-13T10:48:52.090Z,8.40
2023-02-13T10:53:22.733Z,8.40
2023-02-13T10:58:03.709Z,8.50
2023-02-13T11:02:30.111Z,8.50
2023-02-13T11:06:58.804Z,8.50
2023-02-13T11:11:35.425Z,8.50
2023-02-13T11:16:06.186Z,8.60
2023-02-13T11:20:35.021Z,8.70
2023-02-13T11:25:02.267Z,8.70
2023-02-13T11:29:28.772Z,8.80
2023-02-13T11:33:54.275Z,8.80
2023-02-13T11:38:25.443Z,8.80
2023-02-13T11:42:52.618Z,8.80
2023-02-13T11:47:16.804Z,8.90
2023-02-13T11:51:45.257Z,8.90
2023-02-13T11:56:14.091Z,9.00
2023-02-13T12:00:40.288Z,9.10
2023-02-13T12:05:23.227Z,9.30
2023-02-13T12:09:51.485Z,9.30
2023-02-13T12:14:19.377Z,9.20
2023-02-13T12:18:46.462Z,9.20
2023-02-13T12:23:21.370Z,9.10
2023-02-13T12:27:52.225Z,9.20
2023-02-13T12:32:21.050Z,9.20
2023-02-13T12:36:54.932Z,9.20
2023-02-13T12:41:20.382Z,9.20
2023-02-13T12:45:50.660Z,9.10
2023-02-13T12:50:32.680Z,9.00
2023-02-13T12:55:07.774Z,9.10
2023-02-13T12:59:42.666Z,9.00
2023-02-13T13:04:18.859Z,9.00
2023-02-13T13:09:08.809Z,9.00
2023-02-13T13:13:43.846Z,9.00
2023-02-13T13:18:27.582Z,9.00
2023-02-13T13:22:58.202Z,9.00
2023-02-13T13:27:25.866Z,8.90
2023-02-13T13:31:56.293Z,8.80
2023-02-13T13:36:31.297Z,8.80
2023-02-13T13:41:01.152Z,8.80
2023-02-13T13:45:35.427Z,8.80
2023-02-13T13:50:01.002Z,8.80
2023-02-13T13:54:35.600Z,8.70
2023-02-13T13:59:01.079Z,8.70
2023-02-13T14:03:36.542Z,8.70
2023-02-13T14:08:03.543Z,8.80
2023-02-13T14:12:47.921Z,8.80
2023-02-13T14:17:16.356Z,8.80
2023-02-13T14:21:51.283Z,8.80
2023-02-13T14:26:35.536Z,8.80
2023-02-13T14:31:09.099Z,8.80
2023-02-13T14:35:35.691Z,8.70
2023-02-13T14:40:41.474Z,8.70
2023-02-13T14:45:16.239Z,8.70
2023-02-13T14:49:43.815Z,8.60
2023-02-13T14:54:16.893Z,8.50
2023-02-13T14:58:48.791Z,8.40
2023-02-13T15:03:29.018Z,8.30
2023-02-13T15:07:50.809Z,8.30
2023-02-13T15:12:28.574Z,8.20
2023-02-13T15:16:48.209Z,8.20
2023-02-13T15:21:12.969Z,8.20
2023-02-13T15:25:35.707Z,8.10
2023-02-13T15:29:57.718Z,8.10
2023-02-13T15:34:24.985Z,8.10
2023-02-13T15:38:50.803Z,8.10
2023-02-13T15:43:23.799Z,8.10
2023-02-13T15:47:48.804Z,8.00
2023-02-13T15:52:19.376Z,8.00
2023-02-13T15:56:46.831Z,7.90
2023-02-13T16:01:11.592Z,7.90
2023-02-13T16:05:41.486Z,7.90
2023-02-13T16:10:18.860Z,7.80
2023-02-13T16:14:52.526Z,7.80
2023-02-13T16:19:23.902Z,7.80
2023-02-13T16:23:46.088Z,7.80
2023-02-13T16:28:06.612Z,7.70
2023-02-13T16:32:31.106Z,7.70
2023-02-13T16:36:50.113Z,7.60
2023-02-13T16:41:28.720Z,7.60
2023-02-13T16:45:47.567Z,7.50
2023-02-13T16:50:17.651Z,7.50
2023-02-13T16:54:52.050Z,7.50
2023-02-13T16:59:28.064Z,7.50
2023-02-13T17:03:51.855Z,7.50
2023-02-13T17:08:17.281Z,7.40
2023-02-13T17:12:42.725Z,7.40
2023-02-13T17:17:12.883Z,7.40
2023-02-13T17:21:36.868Z,7.40
2023-02-13T17:26:02.542Z,7.40
2023-02-13T17:30:28.568Z,7.40
2023-02-13T17:34:53.309Z,7.40
2023-02-13T17:39:19.205Z,7.40
2023-02-13T17:43:46.330Z,7.30
2023-02-13T17:48:10.339Z,7.30
2023-02-13T17:52:34.402Z,7.30
2023-02-13T17:57:01.582Z,7.30
2023-02-13T18:01:27.050Z,7.30
2023-02-13T18:05:51.427Z,7.30
2023-02-13T18:10:17.247Z,7.30
2023-02-13T18:14:41.203Z,7.20
2023-02-13T18:19:06.991Z,7.20
2023-02-13T18:23:30.946Z,7.20
2023-02-13T18:27:57.573Z,7.20
2023-02-13T18:32:21.365Z,7.20
2023-02-13T18:36:46.838Z,7.20
2023-02-13T18:41:13.255Z,7.20
2023-02-13T18:45:37.703Z,7.20
2023-02-13T18:50:02.184Z,7.20
2023-02-13T18:54:27.477Z,7.10
2023-02-13T18:58:51.873Z,7.10
2023-02-13T19:03:17.494Z,7.10
2023-02-13T19:07:41.359Z,7.10
2023-02-13T19:12:07.448Z,7.00
2023-02-13T19:16:33.567Z,7.00
2023-02-13T19:21:00.600Z,6.90
2023-02-13T19:25:24.542Z,6.90
2023-02-13T19:29:49.952Z,6.70
2023-02-13T19:34:13.898Z,6.60
2023-02-13T19:38:37.958Z,6.50
2023-02-13T19:43:02.041Z,6.40
2023-02-13T19:47:27.841Z,6.20
2023-02-13T19:51:51.824Z,6.10
2023-02-13T19:56:16.226Z,5.90
2023-02-13T20:00:40.114Z,5.70
2023-02-13T20:05:08.506Z,5.50
2023-02-13T20:09:32.310Z,5.30
2023-02-13T20:13:57.089Z,5.20
2023-02-13T20:18:21.072Z,5.00
2023-02-13T20:22:48.205Z,4.90
2023-02-13T20:27:12.395Z,4.70
2023-02-13T20:31:36.776Z,4.60
2023-02-13T20:36:00.659Z,4.40
2023-02-13T20:40:25.954Z,4.30
2023-02-13T20:44:49.990Z,4.30
2023-02-13T20:49:18.809Z,4.10
2023-02-13T20:53:43.449Z,4.10
2023-02-13T20:58:08.579Z,4.00
2023-02-13T21:02:32.403Z,3.90
2023-02-13T21:06:56.445Z,3.90
2023-02-13T21:11:15.933Z,3.90
2023-02-13T21:15:37.426Z,3.80
2023-02-13T21:19:56.944Z,3.80
2023-02-13T21:24:21.343Z,3.80
2023-02-13T21:28:39.753Z,3.80
2023-02-13T21:33:05.132Z,3.80
2023-02-13T21:37:30.335Z,3.80
2023-02-13T21:41:54.204Z,3.80
2023-02-13T21:46:20.768Z,3.90
2023-02-13T21:50:46.209Z,3.90
2023-02-13T21:55:10.274Z,4.10
2023-02-13T21:59:34.230Z,4.20
2023-02-13T22:04:01.028Z,4.30
2023-02-13T22:08:26.598Z,4.50
2023-02-13T22:12:53.874Z,4.60
2023-02-13T22:17:17.718Z,4.70
2023-02-13T22:21:41.845Z,4.80
2023-02-13T22:26:08.179Z,4.90
2023-02-13T22:30:32.372Z,5.00
2023-02-13T22:34:56.475Z,5.00
2023-02-13T22:39:20.330Z,5.10
2023-02-13T22:43:46.199Z,5.20
2023-02-13T22:48:10.208Z,5.20
2023-02-13T22:52:34.137Z,5.20
2023-02-13T22:56:58.085Z,5.10
2023-02-13T23:01:25.474Z,5.10
2023-02-13T23:05:49.452Z,5.10
2023-02-13T23:10:13.686Z,5.10
2023-02-13T23:14:37.957Z,5.10
2023-02-13T23:19:03.447Z,5.20
2023-02-13T23:23:27.456Z,5.20
2023-02-13T23:27:53.777Z,5.30
2023-02-13T23:32:17.947Z,5.30
2023-02-13T23:36:43.198Z,5.30
2023-02-13T23:41:08.603Z,5.30
2023-02-13T23:45:33.144Z,5.40
2023-02-13T23:49:57.522Z,5.40
2023-02-13T23:54:24.508Z,5.40
2023-02-13T23:58:48.433Z,5.40
